Time;durP1;ratioP1;P1;durP2;ratioP2;P2;SDS_P1;SDS_P2;PMS_P1;PMS_P2;Temp;Humidity;BMP_temperature;BMP_pressure;BME280_temperature;BME280_humidity;BME280_pressure;Samples;Min_cycle;Max_cycle;Signal;HPM_P1;HPM_P2
2024/01/04 00:00:28;;;;;;;0.93;0.93;;;;;;;;;;6253697;22;21221;-90
2024/01/04 00:02:54;;;;;;;1.40;0.90;;;;;;;;;;6253573;22;20373;-89
2024/01/04 00:05:20;;;;;;;2.00;0.60;;;;;;;;;;6253514;22;21224;-91
2024/01/04 00:07:46;;;;;;;1.40;0.83;;;;;;;;;;6259921;22;20978;-87
2024/01/04 00:10:14;;;;;;;3.03;0.83;;;;;;;;;;6255082;22;20397;-90
2024/01/04 00:12:40;;;;;;;1.10;1.00;;;;;;;;;;6254128;22;20932;-89
2024/01/04 00:15:07;;;;;;;2.33;1.20;;;;;;;;;;6255229;22;20374;-89
2024/01/04 00:17:33;;;;;;;1.23;0.70;;;;;;;;;;6255601;22;20776;-91
2024/01/04 00:19:59;;;;;;;1.93;0.67;;;;;;;;;;6282899;22;20369;-90
2024/01/04 00:22:25;;;;;;;2.60;0.93;;;;;;;;;;6255978;22;20431;-91
2024/01/04 00:24:54;;;;;;;4.10;0.87;;;;;;;;;;6257613;22;20412;-92
2024/01/04 00:27:24;;;;;;;0.97;0.70;;;;;;;;;;6257648;22;20397;-91
2024/01/04 00:29:50;;;;;;;5.43;1.43;;;;;;;;;;6256990;22;20358;-90
2024/01/04 00:32:16;;;;;;;2.30;0.93;;;;;;;;;;6256354;22;20413;-90
2024/01/04 00:34:42;;;;;;;2.13;0.63;;;;;;;;;;6255805;22;20388;-90
2024/01/04 00:37:08;;;;;;;2.33;2.23;;;;;;;;;;6255675;22;20452;-90
2024/01/04 00:39:34;;;;;;;0.80;0.73;;;;;;;;;;6259673;22;20378;-90
2024/01/04 00:42:02;;;;;;;1.93;1.00;;;;;;;;;;6280339;22;20817;-90
2024/01/04 00:44:28;;;;;;;1.73;0.90;;;;;;;;;;6255564;22;20377;-90
2024/01/04 00:46:54;;;;;;;1.43;0.70;;;;;;;;;;6257428;22;20442;-90
2024/01/04 00:49:20;;;;;;;2.77;1.60;;;;;;;;;;6259558;22;20377;-90
2024/01/04 00:51:46;;;;;;;3.50;0.90;;;;;;;;;;6256524;22;20416;-90
2024/01/04 00:54:13;;;;;;;1.00;0.73;;;;;;;;;;6258245;22;20484;-90
2024/01/04 00:56:39;;;;;;;2.07;1.03;;;;;;;;;;6282048;22;20366;-90
2024/01/04 00:59:05;;;;;;;0.97;0.80;;;;;;;;;;6259436;22;20397;-90
2024/01/04 01:01:34;;;;;;;1.70;1.60;;;;;;;;;;6282212;22;20361;-90
2024/01/04 01:04:00;;;;;;;1.60;0.93;;;;;;;;;;6258320;22;20379;-89
2024/01/04 01:06:26;;;;;;;1.10;0.70;;;;;;;;;;6255967;22;20377;-89
2024/01/04 01:08:52;;;;;;;2.57;1.27;;;;;;;;;;6254653;22;20411;-88
2024/01/04 01:11:18;;;;;;;1.80;1.10;;;;;;;;;;6256014;22;20789;-89
2024/01/04 01:13:44;;;;;;;1.10;0.77;;;;;;;;;;6283253;22;20397;-90
2024/01/04 01:16:10;;;;;;;2.53;0.70;;;;;;;;;;6260562;22;20370;-90
2024/01/04 01:18:37;;;;;;;1.10;1.10;;;;;;;;;;6257352;22;20380;-89
2024/01/04 01:21:04;;;;;;;6.93;1.80;;;;;;;;;;6257909;22;20432;-90
2024/01/04 01:23:31;;;;;;;2.57;1.00;;;;;;;;;;6280188;22;20369;-90
2024/01/04 01:25:57;;;;;;;1.27;1.17;;;;;;;;;;6259730;22;20382;-90
2024/01/04 01:28:23;;;;;;;1.00;0.70;;;;;;;;;;6256072;22;20450;-89
2024/01/04 01:30:49;;;;;;;0.80;0.70;;;;;;;;;;6257578;22;20441;-90
2024/01/04 01:33:15;;;;;;;2.83;0.83;;;;;;;;;;6255320;22;20775;-90
2024/01/04 01:35:41;;;;;;;1.80;1.03;;;;;;;;;;6256261;22;20377;-90
2024/01/04 01:38:07;;;;;;;1.00;0.90;;;;;;;;;;6255854;22;20377;-90
2024/01/04 01:40:33;;;;;;;1.33;0.70;;;;;;;;;;6256694;22;20449;-90
2024/01/04 01:43:00;;;;;;;3.00;1.00;;;;;;;;;;6256465;22;20397;-89
2024/01/04 01:45:25;;;;;;;3.13;1.00;;;;;;;;;;6283377;22;20362;-90
2024/01/04 01:47:52;;;;;;;0.70;0.50;;;;;;;;;;6283239;22;20425;-90
2024/01/04 01:50:19;;;;;;;0.90;0.77;;;;;;;;;;6260200;22;20377;-87
2024/01/04 01:52:45;;;;;;;3.57;0.90;;;;;;;;;;6256242;22;20880;-88
2024/01/04 01:55:11;;;;;;;2.37;0.80;;;;;;;;;;6259144;22;20377;-89
2024/01/04 01:57:37;;;;;;;1.83;0.90;;;;;;;;;;6257273;22;20377;-90
2024/01/04 02:00:04;;;;;;;0.90;0.70;;;;;;;;;;6261680;22;20377;-89
2024/01/04 02:02:30;;;;;;;2.50;0.77;;;;;;;;;;6257268;22;20373;-89
2024/01/04 02:04:56;;;;;;;1.80;0.80;;;;;;;;;;6257618;22;20388;-89
2024/01/04 02:07:23;;;;;;;1.47;0.60;;;;;;;;;;6282566;22;20429;-90
2024/01/04 02:09:49;;;;;;;1.00;0.60;;;;;;;;;;6258707;22;20759;-90
2024/01/04 02:12:15;;;;;;;0.60;0.60;;;;;;;;;;6257005;22;20420;-90
2024/01/04 02:14:41;;;;;;;1.00;0.73;;;;;;;;;;6256550;22;20403;-89
2024/01/04 02:17:07;;;;;;;2.00;0.73;;;;;;;;;;6282501;22;20427;-89
2024/01/04 02:19:33;;;;;;;0.60;0.50;;;;;;;;;;6262816;22;20419;-88
2024/01/04 02:21:59;;;;;;;1.03;0.50;;;;;;;;;;6256767;22;20415;-88
2024/01/04 02:24:25;;;;;;;0.60;0.60;;;;;;;;;;6257259;22;20464;-88
2024/01/04 02:26:52;;;;;;;0.83;0.60;;;;;;;;;;6259088;22;20396;-90
2024/01/04 02:29:18;;;;;;;3.83;2.30;;;;;;;;;;6254891;22;20378;-90
2024/01/04 02:31:44;;;;;;;0.60;0.50;;;;;;;;;;6257945;22;20416;-89
2024/01/04 02:34:10;;;;;;;0.90;0.60;;;;;;;;;;6255141;22;20366;-90
2024/01/04 02:36:36;;;;;;;1.30;0.70;;;;;;;;;;6259123;22;20383;-89
2024/01/04 02:39:02;;;;;;;0.60;0.60;;;;;;;;;;6256298;22;20472;-90
2024/01/04 02:41:28;;;;;;;0.70;0.50;;;;;;;;;;6258849;22;20409;-90
2024/01/04 02:43:54;;;;;;;0.60;0.50;;;;;;;;;;6256721;22;20377;-88
2024/01/04 02:46:20;;;;;;;0.70;0.50;;;;;;;;;;6257722;22;20378;-88
2024/01/04 02:48:46;;;;;;;0.70;0.60;;;;;;;;;;6256491;22;20386;-87
2024/01/04 02:51:12;;;;;;;0.80;0.80;;;;;;;;;;6260551;22;20425;-89
2024/01/04 02:53:38;;;;;;;0.60;0.47;;;;;;;;;;6255672;22;20373;-89
2024/01/04 02:56:04;;;;;;;0.80;0.80;;;;;;;;;;6282890;22;20390;-89
2024/01/04 02:58:30;;;;;;;0.80;0.60;;;;;;;;;;6254652;22;20915;-89
2024/01/04 03:00:57;;;;;;;0.87;0.60;;;;;;;;;;6255960;22;20377;-89
2024/01/04 03:03:23;;;;;;;0.60;0.60;;;;;;;;;;6255672;22;20408;-89
2024/01/04 03:05:49;;;;;;;0.80;0.53;;;;;;;;;;6258533;22;20377;-90
2024/01/04 03:08:15;;;;;;;0.70;0.50;;;;;;;;;;6256609;22;20389;-89
2024/01/04 03:10:41;;;;;;;0.70;0.60;;;;;;;;;;6278625;22;20370;-89
2024/01/04 03:13:07;;;;;;;1.37;0.90;;;;;;;;;;6254690;22;20373;-89
2024/01/04 03:15:33;;;;;;;0.60;0.60;;;;;;;;;;6255073;22;20380;-89
2024/01/04 03:17:59;;;;;;;0.80;0.80;;;;;;;;;;6255680;22;20377;-90
2024/01/04 03:20:25;;;;;;;1.37;0.90;;;;;;;;;;6256231;22;20469;-90
2024/01/04 03:22:51;;;;;;;1.10;0.60;;;;;;;;;;6259431;22;20405;-89
2024/01/04 03:25:17;;;;;;;0.60;0.60;;;;;;;;;;6255672;22;20405;-90
2024/01/04 03:27:43;;;;;;;3.03;0.70;;;;;;;;;;6256175;22;20825;-89
2024/01/04 03:30:10;;;;;;;0.60;0.50;;;;;;;;;;6255509;22;20836;-89
2024/01/04 03:32:36;;;;;;;0.60;0.60;;;;;;;;;;6256387;22;20417;-90
2024/01/04 03:35:02;;;;;;;0.60;0.50;;;;;;;;;;6278979;22;20365;-90
2024/01/04 03:37:28;;;;;;;0.70;0.60;;;;;;;;;;6254272;22;20370;-90
2024/01/04 03:39:54;;;;;;;0.60;0.50;;;;;;;;;;6255025;22;20369;-91
2024/01/04 03:42:20;;;;;;;0.80;0.80;;;;;;;;;;6256840;22;20468;-91
2024/01/04 03:44:46;;;;;;;0.70;0.60;;;;;;;;;;6252359;22;20400;-89
2024/01/04 03:47:12;;;;;;;0.80;0.60;;;;;;;;;;6279468;22;20452;-90
2024/01/04 03:49:38;;;;;;;1.07;0.97;;;;;;;;;;6252495;22;20378;-89
2024/01/04 03:52:04;;;;;;;0.80;0.80;;;;;;;;;;6258127;22;20423;-89
2024/01/04 03:54:30;;;;;;;0.67;0.63;;;;;;;;;;6255090;22;20376;-89
2024/01/04 03:56:56;;;;;;;0.83;0.83;;;;;;;;;;6222375;23;20779;-89
2024/01/04 03:59:22;;;;;;;0.70;0.70;;;;;;;;;;6221856;23;20367;-89
2024/01/04 04:01:48;;;;;;;1.63;0.70;;;;;;;;;;6198415;23;20385;-89
2024/01/04 04:04:15;;;;;;;1.00;0.80;;;;;;;;;;6221654;23;20386;-89
2024/01/04 04:06:41;;;;;;;2.20;0.80;;;;;;;;;;6197055;23;20448;-90
2024/01/04 04:09:07;;;;;;;2.60;0.80;;;;;;;;;;6197162;23;20445;-89
2024/01/04 04:11:33;;;;;;;2.50;0.80;;;;;;;;;;6224755;22;20434;-89
2024/01/04 04:13:59;;;;;;;0.97;0.70;;;;;;;;;;6197861;23;20382;-90
2024/01/04 04:16:25;;;;;;;0.80;0.73;;;;;;;;;;6197580;23;20782;-90
2024/01/04 04:18:51;;;;;;;1.90;1.00;;;;;;;;;;6197990;23;20382;-90
2024/01/04 04:21:20;;;;;;;1.63;0.80;;;;;;;;;;6200407;23;20408;-90
2024/01/04 04:23:49;;;;;;;3.27;1.00;;;;;;;;;;6196224;23;20382;-90
2024/01/04 04:26:17;;;;;;;0.70;0.60;;;;;;;;;;6197237;23;20679;-89
2024/01/04 04:28:43;;;;;;;2.33;0.67;;;;;;;;;;6267439;22;20376;-90
2024/01/04 04:31:16;;;;;;;1.90;1.00;;;;;;;;;;6252366;22;20512;-90
2024/01/04 04:33:43;;;;;;;1.10;0.83;;;;;;;;;;6276850;22;20443;-90
2024/01/04 04:36:10;;;;;;;3.13;0.60;;;;;;;;;;6255854;22;20397;-90
2024/01/04 04:38:36;;;;;;;2.50;0.87;;;;;;;;;;6254578;22;20374;-90
2024/01/04 04:41:05;;;;;;;3.53;1.57;;;;;;;;;;6256345;22;20411;-90
2024/01/04 04:43:31;;;;;;;2.20;0.83;;;;;;;;;;6254750;22;20374;-90
2024/01/04 04:45:57;;;;;;;0.90;0.80;;;;;;;;;;6258137;22;20381;-90
2024/01/04 04:48:24;;;;;;;1.07;0.70;;;;;;;;;;6255936;22;20370;-90
2024/01/04 04:50:50;;;;;;;1.83;0.60;;;;;;;;;;6257061;22;20413;-89
2024/01/04 04:53:16;;;;;;;1.13;0.80;;;;;;;;;;6257977;22;20853;-89
2024/01/04 04:55:42;;;;;;;2.37;1.00;;;;;;;;;;6255756;22;20485;-90
2024/01/04 04:58:08;;;;;;;2.80;0.80;;;;;;;;;;6280278;22;20369;-90
2024/01/04 05:00:35;;;;;;;1.10;0.70;;;;;;;;;;6254274;22;20377;-90
2024/01/04 05:03:00;;;;;;;0.70;0.70;;;;;;;;;;6256539;22;20377;-89
2024/01/04 05:05:27;;;;;;;0.60;0.57;;;;;;;;;;6254737;22;20435;-89
2024/01/04 05:07:53;;;;;;;1.00;0.60;;;;;;;;;;6255648;22;20378;-90
2024/01/04 05:10:19;;;;;;;1.30;0.67;;;;;;;;;;6221648;23;20386;-90
2024/01/04 05:12:45;;;;;;;1.93;0.80;;;;;;;;;;6198618;23;20433;-90
2024/01/04 05:15:11;;;;;;;0.90;0.60;;;;;;;;;;6225277;23;20366;-90
2024/01/04 05:17:37;;;;;;;0.87;0.67;;;;;;;;;;6204195;23;20905;-91
2024/01/04 05:20:04;;;;;;;2.07;0.80;;;;;;;;;;6199440;23;20370;-90
2024/01/04 05:22:30;;;;;;;0.70;0.63;;;;;;;;;;6206624;23;20394;-89
2024/01/04 05:24:56;;;;;;;1.80;0.70;;;;;;;;;;6199829;23;20421;-89
2024/01/04 05:27:22;;;;;;;0.70;0.60;;;;;;;;;;6203685;23;20396;-90
2024/01/04 05:29:48;;;;;;;0.70;0.60;;;;;;;;;;6201791;23;20378;-90
2024/01/04 05:32:14;;;;;;;1.80;0.83;;;;;;;;;;6201862;23;20422;-90
2024/01/04 05:34:42;;;;;;;1.33;0.80;;;;;;;;;;6201669;23;20374;-90
2024/01/04 05:37:08;;;;;;;1.20;0.60;;;;;;;;;;6202412;23;20413;-90
2024/01/04 05:39:34;;;;;;;2.30;1.43;;;;;;;;;;6200686;23;20410;-90
2024/01/04 05:42:00;;;;;;;1.00;0.70;;;;;;;;;;6272694;22;20422;-89
2024/01/04 05:44:26;;;;;;;1.13;0.80;;;;;;;;;;6258366;22;20400;-90
2024/01/04 05:46:52;;;;;;;4.60;1.07;;;;;;;;;;6258389;22;20431;-90
2024/01/04 05:49:18;;;;;;;0.90;0.70;;;;;;;;;;6256447;22;20380;-90
2024/01/04 05:51:44;;;;;;;1.93;0.80;;;;;;;;;;6261334;22;20416;-90
2024/01/04 05:54:10;;;;;;;2.80;0.80;;;;;;;;;;6262815;22;20373;-90
2024/01/04 05:56:36;;;;;;;4.37;1.33;;;;;;;;;;6282897;22;20688;-90
2024/01/04 05:59:02;;;;;;;4.03;1.33;;;;;;;;;;6257112;22;20377;-90
2024/01/04 06:01:28;;;;;;;2.20;0.87;;;;;;;;;;6259061;22;20365;-90
2024/01/04 06:03:54;;;;;;;1.70;0.83;;;;;;;;;;6260541;22;20380;-88
2024/01/04 06:06:20;;;;;;;0.60;0.60;;;;;;;;;;6257309;22;20430;-89
2024/01/04 06:08:46;;;;;;;1.37;0.60;;;;;;;;;;6258592;22;20387;-89
2024/01/04 06:11:12;;;;;;;5.60;1.03;;;;;;;;;;6257307;22;20770;-88
2024/01/04 06:13:38;;;;;;;3.37;1.40;;;;;;;;;;6259484;22;20431;-89
2024/01/04 06:16:08;;;;;;;2.20;1.00;;;;;;;;;;6257299;22;20419;-89
2024/01/04 06:18:37;;;;;;;1.63;0.60;;;;;;;;;;6258241;22;20392;-89
2024/01/04 06:21:05;;;;;;;0.80;0.80;;;;;;;;;;6256832;22;20411;-89
2024/01/04 06:23:31;;;;;;;1.37;0.80;;;;;;;;;;6263773;22;20963;-88
2024/01/04 06:25:57;;;;;;;1.53;0.83;;;;;;;;;;6256077;22;20892;-89
2024/01/04 06:28:23;;;;;;;3.90;0.70;;;;;;;;;;6255885;22;20476;-88
2024/01/04 06:30:49;;;;;;;0.67;0.67;;;;;;;;;;6255098;22;20508;-89
2024/01/04 06:33:15;;;;;;;0.70;0.70;;;;;;;;;;6259707;22;20388;-88
2024/01/04 06:35:42;;;;;;;3.73;0.90;;;;;;;;;;6255938;22;20377;-90
2024/01/04 06:38:08;;;;;;;6.40;0.80;;;;;;;;;;6257305;22;20381;-89
2024/01/04 06:40:37;;;;;;;2.20;0.87;;;;;;;;;;6254656;22;21088;-90
2024/01/04 06:43:08;;;;;;;3.00;1.97;;;;;;;;;;6256153;22;20904;-90
2024/01/04 06:45:34;;;;;;;7.30;1.00;;;;;;;;;;6256910;22;20412;-89
2024/01/04 06:48:00;;;;;;;1.00;0.93;;;;;;;;;;6258667;22;20399;-89
2024/01/04 06:50:26;;;;;;;1.83;0.73;;;;;;;;;;6255154;22;20389;-87
2024/01/04 06:52:52;;;;;;;2.30;1.60;;;;;;;;;;6253696;22;20966;-89
2024/01/04 06:55:18;;;;;;;1.30;1.20;;;;;;;;;;6252736;22;20429;-89
2024/01/04 06:57:44;;;;;;;2.50;0.90;;;;;;;;;;6257458;22;20378;-89
2024/01/04 07:00:10;;;;;;;1.00;0.90;;;;;;;;;;6255778;22;20378;-88
2024/01/04 07:02:37;;;;;;;1.80;1.13;;;;;;;;;;6255235;22;20387;-88
2024/01/04 07:05:06;;;;;;;0.93;0.70;;;;;;;;;;6256906;22;20377;-89
2024/01/04 07:07:32;;;;;;;1.07;0.80;;;;;;;;;;6254699;22;20388;-88
2024/01/04 07:09:58;;;;;;;6.10;1.20;;;;;;;;;;6279164;22;20369;-88
2024/01/04 07:12:25;;;;;;;1.30;0.70;;;;;;;;;;6253943;22;20425;-88
2024/01/04 07:14:51;;;;;;;2.37;0.73;;;;;;;;;;6255344;22;20381;-88
2024/01/04 07:17:17;;;;;;;4.57;1.03;;;;;;;;;;6254884;22;20374;-88
2024/01/04 07:19:43;;;;;;;1.27;0.77;;;;;;;;;;6255314;22;20384;-88
2024/01/04 07:22:12;;;;;;;1.47;0.97;;;;;;;;;;6254616;22;20397;-89
2024/01/04 07:24:38;;;;;;;2.03;0.90;;;;;;;;;;6254786;22;20436;-88
2024/01/04 07:27:04;;;;;;;0.60;0.60;;;;;;;;;;6253612;22;20385;-87
2024/01/04 07:29:31;;;;;;;2.90;0.90;;;;;;;;;;6257537;22;20409;-88
2024/01/04 07:31:57;;;;;;;3.87;1.07;;;;;;;;;;6253713;22;20424;-87
2024/01/04 07:34:23;;;;;;;1.07;0.83;;;;;;;;;;6254238;22;20370;-87
2024/01/04 07:36:49;;;;;;;1.07;0.70;;;;;;;;;;6254118;22;20400;-88
2024/01/04 07:39:18;;;;;;;1.07;0.70;;;;;;;;;;6256985;22;20659;-88
2024/01/04 07:41:44;;;;;;;0.70;0.50;;;;;;;;;;6254304;22;20388;-88
2024/01/04 07:44:10;;;;;;;1.37;0.83;;;;;;;;;;6253649;22;20765;-86
2024/01/04 07:46:36;;;;;;;2.07;0.63;;;;;;;;;;6276899;22;20419;-88
2024/01/04 07:49:06;;;;;;;0.83;0.80;;;;;;;;;;6253978;22;20703;-88
2024/01/04 07:51:35;;;;;;;1.60;0.70;;;;;;;;;;6250459;22;20432;-86
2024/01/04 07:54:01;;;;;;;0.60;0.50;;;;;;;;;;6251591;22;20386;-86
2024/01/04 07:56:27;;;;;;;1.07;0.80;;;;;;;;;;6254209;22;20384;-85
2024/01/04 07:58:53;;;;;;;0.80;0.70;;;;;;;;;;6279963;22;20365;-85
2024/01/04 08:01:19;;;;;;;0.70;0.70;;;;;;;;;;6249874;22;20385;-86
2024/01/04 08:03:45;;;;;;;0.90;0.70;;;;;;;;;;6258009;22;20384;-88
2024/01/04 08:06:11;;;;;;;1.30;0.77;;;;;;;;;;6252721;22;20722;-92
2024/01/04 08:08:37;;;;;;;1.30;0.80;;;;;;;;;;6257477;22;20364;-88
2024/01/04 08:11:03;;;;;;;0.90;0.60;;;;;;;;;;6278654;22;20495;-88
2024/01/04 08:13:32;;;;;;;3.80;1.23;;;;;;;;;;6278465;22;20362;-87
2024/01/04 08:15:59;;;;;;;1.93;0.90;;;;;;;;;;6250358;22;20454;-87
2024/01/04 08:18:25;;;;;;;6.40;1.00;;;;;;;;;;6252144;22;20476;-87
2024/01/04 08:20:51;;;;;;;2.03;1.27;;;;;;;;;;6249664;22;20406;-86
2024/01/04 08:23:17;;;;;;;2.80;1.10;;;;;;;;;;6250985;22;20369;-87
2024/01/04 08:25:43;;;;;;;2.67;1.30;;;;;;;;;;6250045;22;20369;-87
2024/01/04 08:28:09;;;;;;;1.40;0.70;;;;;;;;;;6249766;22;20384;-87
2024/01/04 08:30:35;;;;;;;4.00;0.90;;;;;;;;;;6248910;22;20374;-87
2024/01/04 08:33:01;;;;;;;0.70;0.70;;;;;;;;;;6250010;22;20418;-88
2024/01/04 08:35:27;;;;;;;2.87;1.30;;;;;;;;;;6250252;22;20939;-87
2024/01/04 08:37:54;;;;;;;3.90;1.23;;;;;;;;;;6254182;22;20374;-88
2024/01/04 08:40:20;;;;;;;2.10;1.10;;;;;;;;;;6226441;23;20444;-88
2024/01/04 08:42:46;;;;;;;2.07;1.40;;;;;;;;;;6191966;23;20483;-88
2024/01/04 08:45:12;;;;;;;0.83;0.67;;;;;;;;;;6191516;23;20864;-88
2024/01/04 08:47:38;;;;;;;1.00;0.90;;;;;;;;;;6166575;23;21039;-88
2024/01/04 08:50:05;;;;;;;1.87;1.77;;;;;;;;;;6166775;23;20490;-88
2024/01/04 08:52:31;;;;;;;2.40;0.87;;;;;;;;;;6165860;23;20430;-89
2024/01/04 08:54:56;;;;;;;10.00;1.73;;;;;;;;;;6167243;23;20404;-88
2024/01/04 08:57:22;;;;;;;2.00;1.00;;;;;;;;;;6166772;23;20902;-88
2024/01/04 08:59:48;;;;;;;1.40;1.17;;;;;;;;;;6167705;23;20379;-88
2024/01/04 09:02:14;;;;;;;2.20;0.80;;;;;;;;;;6192919;23;20386;-88
2024/01/04 09:04:41;;;;;;;2.17;1.30;;;;;;;;;;6167911;23;20398;-87
2024/01/04 09:07:10;;;;;;;2.13;1.30;;;;;;;;;;6168371;23;20743;-89
2024/01/04 09:09:36;;;;;;;1.47;0.70;;;;;;;;;;6169339;23;20438;-89
2024/01/04 09:12:02;;;;;;;0.93;0.90;;;;;;;;;;6214759;22;20412;-88
2024/01/04 09:14:28;;;;;;;1.27;0.80;;;;;;;;;;6249012;22;20365;-88
2024/01/04 09:16:54;;;;;;;1.10;0.77;;;;;;;;;;6253109;22;20405;-89
2024/01/04 09:19:20;;;;;;;3.50;1.20;;;;;;;;;;6252189;22;20373;-89
2024/01/04 09:21:47;;;;;;;3.73;0.80;;;;;;;;;;6248938;22;20489;-89
2024/01/04 09:24:13;;;;;;;2.47;1.20;;;;;;;;;;6251375;22;20381;-89
2024/01/04 09:26:42;;;;;;;2.47;0.83;;;;;;;;;;6250951;22;20381;-89
2024/01/04 09:29:09;;;;;;;3.97;1.10;;;;;;;;;;6255584;22;20369;-89
2024/01/04 09:31:35;;;;;;;3.47;0.77;;;;;;;;;;6256371;22;20435;-88
2024/01/04 09:34:01;;;;;;;3.13;0.80;;;;;;;;;;6254154;22;20385;-89
2024/01/04 09:36:27;;;;;;;1.03;0.97;;;;;;;;;;6254760;22;20377;-88
2024/01/04 09:38:55;;;;;;;3.60;1.20;;;;;;;;;;6256379;22;20381;-89
2024/01/04 09:41:24;;;;;;;10.00;1.10;;;;;;;;;;6258788;22;20390;-88
2024/01/04 09:43:51;;;;;;;1.80;0.80;;;;;;;;;;6256729;22;20869;-88
2024/01/04 09:46:19;;;;;;;3.07;0.80;;;;;;;;;;6282241;22;20458;-88
2024/01/04 09:48:45;;;;;;;1.03;0.70;;;;;;;;;;6255175;22;20547;-89
2024/01/04 09:51:11;;;;;;;0.87;0.77;;;;;;;;;;6277791;22;20422;-88
2024/01/04 09:53:37;;;;;;;1.90;0.70;;;;;;;;;;6249538;22;20377;-89
2024/01/04 09:56:04;;;;;;;1.20;0.70;;;;;;;;;;6277314;22;20380;-88
2024/01/04 09:58:30;;;;;;;2.17;0.97;;;;;;;;;;6249988;22;20405;-88
2024/01/04 10:00:56;;;;;;;2.60;0.90;;;;;;;;;;6278683;22;20424;-88
2024/01/04 10:03:22;;;;;;;5.30;1.17;;;;;;;;;;6252316;22;20462;-88
2024/01/04 10:05:48;;;;;;;7.00;1.10;;;;;;;;;;6253299;22;20380;-89
2024/01/04 10:08:19;;;;;;;1.70;0.93;;;;;;;;;;6277992;22;20388;-88
2024/01/04 10:10:45;;;;;;;3.23;1.20;;;;;;;;;;6279216;22;20416;-88
2024/01/04 10:13:11;;;;;;;2.97;1.20;;;;;;;;;;6254664;22;20373;-89
2024/01/04 10:15:37;;;;;;;3.33;0.90;;;;;;;;;;6261389;22;20370;-89
2024/01/04 10:18:03;;;;;;;3.53;1.00;;;;;;;;;;6257581;22;20373;-88
2024/01/04 10:20:29;;;;;;;0.93;0.83;;;;;;;;;;6280913;22;20415;-88
2024/01/04 10:22:57;;;;;;;5.07;1.47;;;;;;;;;;6256960;22;20372;-88
2024/01/04 10:25:23;;;;;;;1.27;0.80;;;;;;;;;;6256496;22;20910;-88
2024/01/04 10:27:56;;;;;;;3.60;0.83;;;;;;;;;;6255312;22;20388;-88
2024/01/04 10:30:22;;;;;;;2.70;1.00;;;;;;;;;;6283343;22;21162;-88
2024/01/04 10:32:49;;;;;;;0.70;0.60;;;;;;;;;;6253661;22;20779;-87
2024/01/04 10:35:15;;;;;;;8.00;1.40;;;;;;;;;;6255292;22;20412;-88
2024/01/04 10:37:41;;;;;;;7.20;0.90;;;;;;;;;;6254746;22;20381;-87
2024/01/04 10:40:09;;;;;;;6.93;1.57;;;;;;;;;;6256413;22;20386;-88
2024/01/04 10:42:35;;;;;;;1.37;0.80;;;;;;;;;;6256665;22;20390;-89
2024/01/04 10:45:01;;;;;;;4.23;2.03;;;;;;;;;;6284433;22;20437;-89
2024/01/04 10:47:29;;;;;;;1.17;0.80;;;;;;;;;;6224203;23;20384;-89
2024/01/04 10:49:58;;;;;;;1.10;0.80;;;;;;;;;;6222822;23;20765;-89
2024/01/04 10:52:26;;;;;;;1.57;0.70;;;;;;;;;;6248305;23;20441;-88
2024/01/04 10:54:52;;;;;;;2.23;1.00;;;;;;;;;;6222940;23;20381;-88
2024/01/04 10:57:18;;;;;;;2.43;0.93;;;;;;;;;;6224180;22;20371;-89
2024/01/04 10:59:45;;;;;;;1.40;0.70;;;;;;;;;;6221929;23;20382;-90
2024/01/04 11:02:11;;;;;;;0.70;0.50;;;;;;;;;;6222223;23;20420;-89
2024/01/04 11:04:37;;;;;;;1.37;0.60;;;;;;;;;;6247488;23;20446;-88
2024/01/04 11:07:03;;;;;;;0.83;0.53;;;;;;;;;;6222298;23;20382;-88
2024/01/04 11:09:29;;;;;;;0.60;0.50;;;;;;;;;;6249319;23;20370;-87
2024/01/04 11:11:56;;;;;;;6.53;1.03;;;;;;;;;;6223244;23;20426;-88
2024/01/04 11:14:22;;;;;;;2.40;0.60;;;;;;;;;;6247379;23;20378;-88
2024/01/04 11:16:51;;;;;;;0.70;0.60;;;;;;;;;;6221716;23;20462;-88
2024/01/04 11:19:23;;;;;;;1.63;0.60;;;;;;;;;;6250656;22;20460;-88
2024/01/04 11:22:09;;;;;;;1.10;0.60;;;;;;;;;;6284286;22;20394;-88
2024/01/04 11:24:42;;;;;;;2.63;0.80;;;;;;;;;;6280150;22;20373;-88
2024/01/04 11:27:10;;;;;;;1.73;0.90;;;;;;;;;;6254178;22;20366;-88
2024/01/04 11:29:36;;;;;;;2.47;0.63;;;;;;;;;;6280943;22;20463;-88
2024/01/04 11:32:02;;;;;;;0.80;0.60;;;;;;;;;;6282999;22;20899;-88
2024/01/04 11:34:31;;;;;;;1.10;0.60;;;;;;;;;;6255227;22;20746;-87
2024/01/04 11:37:33;;;;;;;0.60;0.60;;;;;;;;;;6256570;22;20411;-88
2024/01/04 11:40:03;;;;;;;1.30;0.70;;;;;;;;;;6162682;23;20423;-89
2024/01/04 11:42:32;;;;;;;0.90;0.80;;;;;;;;;;6237048;22;20385;-87
2024/01/04 11:44:59;;;;;;;1.73;0.70;;;;;;;;;;6281879;22;20377;-87
2024/01/04 11:47:26;;;;;;;3.10;0.80;;;;;;;;;;6259306;22;20393;-87
2024/01/04 11:49:58;;;;;;;1.87;0.60;;;;;;;;;;6256536;22;20429;-87
2024/01/04 11:52:26;;;;;;;3.60;0.97;;;;;;;;;;6259683;22;20590;-87
2024/01/04 11:54:53;;;;;;;2.50;0.87;;;;;;;;;;6281104;22;20369;-88
2024/01/04 11:57:19;;;;;;;1.00;0.87;;;;;;;;;;6254790;22;20390;-87
2024/01/04 11:59:45;;;;;;;1.50;1.20;;;;;;;;;;6254507;22;20379;-88
2024/01/04 12:02:19;;;;;;;1.30;0.90;;;;;;;;;;6258107;22;20837;-87
2024/01/04 12:04:45;;;;;;;0.80;0.80;;;;;;;;;;6256252;22;20871;-88
2024/01/04 12:07:11;;;;;;;1.87;0.73;;;;;;;;;;6256009;22;20385;-86
2024/01/04 12:09:40;;;;;;;1.00;0.90;;;;;;;;;;6254901;22;20361;-88
2024/01/04 12:12:09;;;;;;;1.63;0.70;;;;;;;;;;6257884;22;20440;-87
2024/01/04 12:14:35;;;;;;;1.73;0.87;;;;;;;;;;6256063;22;20413;-88
2024/01/04 12:17:01;;;;;;;3.00;0.90;;;;;;;;;;6255173;22;20401;-88
2024/01/04 12:19:28;;;;;;;1.53;0.87;;;;;;;;;;6253111;22;20472;-89
2024/01/04 12:21:55;;;;;;;0.70;0.60;;;;;;;;;;6252970;22;20407;-89
2024/01/04 12:24:21;;;;;;;3.23;1.07;;;;;;;;;;6252802;22;20454;-89
2024/01/04 12:26:47;;;;;;;1.40;0.77;;;;;;;;;;6260972;22;20911;-88
2024/01/04 12:29:13;;;;;;;5.07;1.10;;;;;;;;;;6253562;22;20412;-88
2024/01/04 12:31:45;;;;;;;2.90;1.27;;;;;;;;;;6281279;22;20424;-89
2024/01/04 12:34:11;;;;;;;1.93;1.40;;;;;;;;;;6253157;22;20468;-88
2024/01/04 12:36:37;;;;;;;1.47;1.20;;;;;;;;;;6255528;22;20405;-88
2024/01/04 12:39:07;;;;;;;3.70;0.80;;;;;;;;;;6253458;22;20746;-88
2024/01/04 12:41:33;;;;;;;3.73;1.17;;;;;;;;;;6255181;22;20377;-88
2024/01/04 12:44:00;;;;;;;3.23;1.33;;;;;;;;;;6279270;22;20391;-88
2024/01/04 12:46:27;;;;;;;1.87;0.83;;;;;;;;;;6254997;22;20392;-88
2024/01/04 12:48:53;;;;;;;2.70;0.80;;;;;;;;;;6251739;22;20381;-88
2024/01/04 12:51:26;;;;;;;1.00;0.70;;;;;;;;;;6253048;22;20500;-87
2024/01/04 12:53:52;;;;;;;1.10;1.00;;;;;;;;;;6253463;22;20381;-89
2024/01/04 12:56:20;;;;;;;4.93;1.60;;;;;;;;;;6254476;22;20369;-88
2024/01/04 12:58:46;;;;;;;1.70;1.00;;;;;;;;;;6283550;22;20369;-88
2024/01/04 13:01:12;;;;;;;4.50;1.30;;;;;;;;;;6252929;22;20443;-86
2024/01/04 13:03:38;;;;;;;5.63;1.20;;;;;;;;;;6280636;22;20369;-87
2024/01/04 13:06:04;;;;;;;1.00;0.73;;;;;;;;;;6252070;22;20397;-89
2024/01/04 13:08:30;;;;;;;1.20;0.67;;;;;;;;;;6252309;22;20465;-89
2024/01/04 13:10:56;;;;;;;5.60;1.57;;;;;;;;;;6277852;22;20470;-89
2024/01/04 13:13:23;;;;;;;1.07;0.60;;;;;;;;;;6255350;22;20388;-88
2024/01/04 13:15:49;;;;;;;1.10;0.80;;;;;;;;;;6252856;22;20413;-88
2024/01/04 13:18:15;;;;;;;2.93;0.97;;;;;;;;;;6253946;22;20387;-89
2024/01/04 13:20:41;;;;;;;2.67;0.90;;;;;;;;;;6253805;22;20729;-88
2024/01/04 13:23:08;;;;;;;2.03;0.80;;;;;;;;;;6254045;22;20408;-89
2024/01/04 13:25:34;;;;;;;3.00;1.00;;;;;;;;;;6253458;22;20468;-88
2024/01/04 13:28:00;;;;;;;3.80;1.63;;;;;;;;;;6258472;22;20998;-89
2024/01/04 13:30:27;;;;;;;7.40;0.93;;;;;;;;;;6279802;22;20441;-89
2024/01/04 13:32:53;;;;;;;2.83;0.83;;;;;;;;;;6282221;22;20900;-88
2024/01/04 13:35:19;;;;;;;2.20;0.80;;;;;;;;;;6258482;22;20438;-89
2024/01/04 13:37:45;;;;;;;3.80;1.23;;;;;;;;;;6257103;22;20381;-88
2024/01/04 13:40:12;;;;;;;4.33;1.70;;;;;;;;;;6257392;22;20373;-89
2024/01/04 13:42:42;;;;;;;1.83;1.40;;;;;;;;;;6283643;22;21161;-89
2024/01/04 13:45:08;;;;;;;1.93;0.73;;;;;;;;;;6257674;22;20387;-88
2024/01/04 13:47:34;;;;;;;0.90;0.60;;;;;;;;;;6255424;22;20446;-90
2024/01/04 13:50:00;;;;;;;1.60;0.97;;;;;;;;;;6257349;22;20377;-90
2024/01/04 13:52:26;;;;;;;2.33;1.17;;;;;;;;;;6254988;22;20417;-88
2024/01/04 13:54:52;;;;;;;5.87;0.87;;;;;;;;;;6258431;22;20371;-90
2024/01/04 13:57:18;;;;;;;5.50;1.40;;;;;;;;;;6256052;22;20373;-89
2024/01/04 13:59:44;;;;;;;1.67;1.00;;;;;;;;;;6257797;22;20415;-89
2024/01/04 14:02:10;;;;;;;3.10;1.20;;;;;;;;;;6282053;22;20934;-88
2024/01/04 14:04:36;;;;;;;1.70;1.00;;;;;;;;;;6258746;22;20377;-89
2024/01/04 14:07:03;;;;;;;2.60;0.90;;;;;;;;;;6256932;22;20379;-88
2024/01/04 14:09:29;;;;;;;1.47;1.27;;;;;;;;;;6258967;22;20377;-89
2024/01/04 14:11:55;;;;;;;1.30;0.93;;;;;;;;;;6284407;22;20413;-89
2024/01/04 14:14:21;;;;;;;2.80;1.10;;;;;;;;;;6285796;22;20769;-89
2024/01/04 14:16:47;;;;;;;2.60;1.03;;;;;;;;;;6259141;22;20378;-89
2024/01/04 14:19:13;;;;;;;7.20;1.90;;;;;;;;;;6260757;22;20362;-89
2024/01/04 14:21:40;;;;;;;3.63;1.00;;;;;;;;;;6256906;22;20420;-89
2024/01/04 14:24:06;;;;;;;2.33;1.50;;;;;;;;;;6257455;22;20421;-89
2024/01/04 14:26:32;;;;;;;5.83;1.33;;;;;;;;;;6256966;22;20733;-89
2024/01/04 14:28:59;;;;;;;3.00;0.90;;;;;;;;;;6282919;22;20369;-90
2024/01/04 14:31:27;;;;;;;2.63;0.90;;;;;;;;;;6257011;22;20417;-89
2024/01/04 14:33:53;;;;;;;3.83;1.00;;;;;;;;;;6256528;22;20384;-88
2024/01/04 14:36:20;;;;;;;0.90;0.73;;;;;;;;;;6289827;22;20361;-88
2024/01/04 14:38:48;;;;;;;2.70;0.67;;;;;;;;;;6256361;22;20373;-88